createdAt,value
2018-10-06T00:01:17.186Z,63.58
2018-10-06T00:03:48.765Z,64.10
2018-10-06T00:06:17.563Z,63.69
2018-10-06T00:08:46.683Z,63.86
2018-10-06T00:11:15.583Z,63.96
2018-10-06T00:13:44.366Z,64.16
2018-10-06T00:16:13.197Z,64.35
2018-10-06T00:18:41.989Z,64.06
2018-10-06T00:21:12.320Z,64.78
2018-10-06T00:23:42.501Z,65.07
2018-10-06T00:26:12.028Z,64.45
2018-10-06T00:28:41.077Z,64.47
2018-10-06T00:31:10.713Z,64.85
2018-10-06T00:33:41.092Z,64.72
2018-10-06T00:36:11.082Z,64.57
2018-10-06T00:38:41.618Z,64.53
2018-10-06T00:41:12.894Z,64.29
2018-10-06T00:43:43.001Z,64.59
2018-10-06T00:46:11.764Z,65.17
2018-10-06T00:48:40.497Z,65.00
2018-10-06T00:51:09.238Z,65.16
2018-10-06T00:53:38.380Z,64.66
2018-10-06T00:56:07.187Z,64.66
2018-10-06T00:58:36.013Z,64.70
2018-10-06T01:01:04.793Z,64.91
2018-10-06T01:03:33.552Z,65.64
2018-10-06T01:06:02.273Z,65.73
2018-10-06T01:08:31.184Z,65.57
2018-10-06T01:11:00.047Z,66.27
2018-10-06T01:13:28.815Z,66.22
2018-10-06T01:15:57.949Z,65.66
2018-10-06T01:18:27.150Z,65.50
2018-10-06T01:20:56.050Z,65.53
2018-10-06T01:23:24.865Z,65.48
2018-10-06T01:25:53.714Z,65.84
2018-10-06T01:28:23.393Z,66.24
2018-10-06T01:30:53.540Z,65.84
2018-10-06T01:33:23.485Z,66.55
2018-10-06T01:35:52.834Z,66.03
2018-10-06T01:38:21.582Z,66.65
2018-10-06T01:40:50.959Z,66.33
2018-10-06T01:43:21.396Z,66.34
2018-10-06T01:45:51.082Z,67.13
2018-10-06T01:48:20.134Z,66.92
2018-10-06T01:50:49.806Z,66.99
2018-10-06T01:53:18.934Z,67.02
2018-10-06T01:55:47.667Z,67.24
2018-10-06T01:58:17.821Z,67.16
2018-10-06T02:00:46.557Z,67.16
2018-10-06T02:03:15.314Z,67.30
2018-10-06T02:05:44.140Z,67.36
2018-10-06T02:08:13.566Z,67.74
2018-10-06T02:10:42.922Z,67.47
2018-10-06T02:13:12.255Z,67.50
2018-10-06T02:15:42.093Z,67.34
2018-10-06T02:18:11.374Z,67.37
2018-10-06T02:20:40.527Z,67.94
2018-10-06T02:23:09.671Z,67.43
2018-10-06T02:25:38.869Z,68.25
2018-10-06T02:28:08.208Z,67.81
2018-10-06T02:30:37.439Z,67.88
2018-10-06T02:33:06.958Z,67.85
2018-10-06T02:35:36.177Z,67.93
2018-10-06T02:38:05.945Z,68.24
2018-10-06T02:40:35.473Z,69.00
2018-10-06T02:43:04.496Z,69.05
2018-10-06T02:45:33.310Z,68.67
2018-10-06T02:48:02.275Z,69.25
2018-10-06T02:50:31.292Z,69.38
2018-10-06T02:53:00.476Z,68.84
2018-10-06T02:55:29.767Z,68.87
2018-10-06T02:57:58.495Z,69.54
2018-10-06T03:00:27.266Z,68.93
2018-10-06T03:02:56.239Z,69.16
2018-10-06T03:05:25.551Z,68.88
2018-10-06T03:07:54.255Z,69.55
2018-10-06T03:10:23.082Z,69.94
2018-10-06T03:12:51.823Z,69.85
2018-10-06T03:15:20.898Z,69.81
2018-10-06T03:17:49.601Z,69.65
2018-10-06T03:20:18.720Z,69.53
2018-10-06T03:22:47.922Z,69.69
2018-10-06T03:25:18.380Z,69.75
2018-10-06T03:27:48.935Z,69.19
2018-10-06T03:30:18.982Z,69.38
2018-10-06T03:32:50.289Z,69.79
2018-10-06T03:35:19.919Z,69.79
2018-10-06T03:37:49.954Z,70.07
2018-10-06T03:40:19.370Z,70.80
2018-10-06T03:42:48.987Z,70.31
2018-10-06T03:45:18.540Z,70.81
2018-10-06T03:47:49.077Z,70.86
2018-10-06T03:50:19.586Z,70.54
2018-10-06T03:52:49.419Z,70.83
2018-10-06T03:55:19.134Z,70.64
2018-10-06T03:57:48.439Z,70.33
2018-10-06T04:00:18.126Z,70.96
2018-10-06T04:02:47.651Z,70.55
2018-10-06T04:05:16.553Z,71.56
2018-10-06T04:07:46.216Z,71.56
2018-10-06T04:10:16.098Z,71.16
2018-10-06T04:12:45.792Z,71.04
2018-10-06T04:15:14.907Z,71.55
2018-10-06T04:17:44.095Z,71.40
2018-10-06T04:20:13.101Z,71.77
2018-10-06T04:22:42.096Z,71.48
2018-10-06T04:25:11.125Z,71.63
2018-10-06T04:27:40.150Z,71.93
2018-10-06T04:30:10.831Z,72.28
2018-10-06T04:32:39.907Z,72.31
2018-10-06T04:35:09.566Z,72.15
2018-10-06T04:37:40.214Z,72.63
2018-10-06T04:40:09.975Z,72.13
2018-10-06T04:42:39.740Z,72.25
2018-10-06T04:45:08.599Z,71.80
2018-10-06T04:47:37.663Z,72.42
2018-10-06T04:50:06.656Z,71.86
2018-10-06T04:52:35.419Z,71.73
2018-10-06T04:55:04.734Z,71.83
2018-10-06T04:57:33.430Z,72.38
2018-10-06T05:00:02.614Z,71.78
2018-10-06T05:02:31.444Z,72.26
2018-10-06T05:05:00.429Z,71.42
2018-10-06T05:07:29.274Z,71.83
2018-10-06T05:09:58.269Z,71.62
2018-10-06T05:12:27.444Z,71.68
2018-10-06T05:14:56.819Z,72.01
2018-10-06T05:17:25.940Z,71.98
2018-10-06T05:19:55.013Z,71.81
2018-10-06T05:22:23.789Z,71.99
2018-10-06T05:24:53.194Z,71.75
2018-10-06T05:27:21.919Z,71.88
2018-10-06T05:29:50.606Z,71.87
2018-10-06T05:32:20.028Z,71.83
2018-10-06T05:34:49.482Z,71.83
2018-10-06T05:37:18.371Z,72.41
2018-10-06T05:39:47.116Z,71.96
2018-10-06T05:42:15.825Z,71.94
2018-10-06T05:44:44.492Z,72.20
2018-10-06T05:47:13.501Z,72.64
2018-10-06T05:49:42.351Z,72.11
2018-10-06T05:52:11.760Z,72.07
2018-10-06T05:54:40.548Z,72.16
2018-10-06T05:57:09.630Z,72.52
2018-10-06T05:59:38.623Z,72.53
2018-10-06T06:02:08.205Z,72.42
2018-10-06T06:04:36.966Z,72.49
2018-10-06T06:07:06.326Z,73.08
2018-10-06T06:09:35.058Z,73.04
2018-10-06T06:12:03.767Z,72.40
2018-10-06T06:14:33.761Z,72.07
2018-10-06T06:17:02.774Z,72.64
2018-10-06T06:19:32.480Z,72.47
2018-10-06T06:22:03.380Z,71.90
2018-10-06T06:24:32.773Z,72.20
2018-10-06T06:27:02.336Z,72.24
2018-10-06T06:29:31.359Z,72.22
2018-10-06T06:32:00.526Z,72.08
2018-10-06T06:34:31.973Z,71.44
2018-10-06T06:37:01.078Z,72.22
2018-10-06T06:39:30.341Z,71.67
2018-10-06T06:42:00.544Z,71.85
2018-10-06T06:44:31.056Z,72.33
2018-10-06T06:47:00.513Z,72.18
2018-10-06T06:49:29.300Z,72.34
2018-10-06T06:51:58.084Z,71.66
2018-10-06T06:54:26.925Z,71.39
2018-10-06T06:56:56.578Z,71.71
2018-10-06T06:59:26.173Z,70.92
2018-10-06T07:01:55.153Z,71.16
2018-10-06T07:04:24.249Z,70.50
2018-10-06T07:06:53.710Z,71.28
2018-10-06T07:09:22.600Z,71.06
2018-10-06T07:11:51.384Z,70.44
2018-10-06T07:14:20.248Z,69.54
2018-10-06T07:16:49.016Z,69.29
2018-10-06T07:19:18.346Z,68.91
2018-10-06T07:21:47.393Z,68.80
2018-10-06T07:24:16.385Z,68.17
2018-10-06T07:26:45.215Z,68.25
2018-10-06T07:29:13.983Z,67.98
2018-10-06T07:31:42.925Z,67.98
2018-10-06T07:34:11.722Z,67.94
2018-10-06T07:36:40.515Z,66.81
2018-10-06T07:39:09.723Z,66.43
2018-10-06T07:41:38.650Z,66.20
2018-10-06T07:44:07.743Z,66.11
2018-10-06T07:46:36.566Z,64.73
2018-10-06T07:49:05.851Z,65.00
2018-10-06T07:51:34.681Z,64.44
2018-10-06T07:54:03.898Z,64.29
2018-10-06T07:56:32.908Z,64.94
2018-10-06T07:59:02.012Z,64.76
2018-10-06T08:01:31.102Z,64.57
2018-10-06T08:04:00.026Z,63.40
2018-10-06T08:06:29.316Z,63.38
2018-10-06T08:08:58.452Z,63.82
2018-10-06T08:11:27.382Z,63.07
2018-10-06T08:13:57.978Z,63.43
2018-10-06T08:16:27.094Z,63.45
2018-10-06T08:18:56.308Z,62.91
2018-10-06T08:21:26.308Z,62.42
2018-10-06T08:23:55.639Z,62.27
2018-10-06T08:26:25.123Z,61.56
2018-10-06T08:28:53.907Z,61.50
2018-10-06T08:31:22.809Z,61.82
2018-10-06T08:33:51.647Z,61.05
2018-10-06T08:36:20.703Z,62.01
2018-10-06T08:38:49.882Z,60.60
2018-10-06T08:41:19.502Z,60.60
2018-10-06T08:43:48.603Z,60.69
2018-10-06T08:46:18.335Z,59.56
2018-10-06T08:48:47.098Z,59.63
2018-10-06T08:51:15.964Z,60.06
2018-10-06T08:53:44.757Z,60.16
2018-10-06T08:56:13.757Z,59.13
2018-10-06T08:58:42.484Z,58.89
2018-10-06T09:01:11.371Z,58.25
2018-10-06T09:03:40.207Z,58.86
2018-10-06T09:06:09.083Z,58.56
2018-10-06T09:08:38.866Z,58.29
2018-10-06T09:11:07.691Z,57.46
2018-10-06T09:13:36.524Z,57.86
2018-10-06T09:16:06.272Z,57.39
2018-10-06T09:18:35.049Z,57.60
2018-10-06T09:21:03.822Z,56.62
2018-10-06T09:23:32.626Z,56.39
2018-10-06T09:26:01.576Z,56.71
2018-10-06T09:28:30.728Z,56.84
2018-10-06T09:31:00.024Z,55.80
2018-10-06T09:33:28.923Z,55.70
2018-10-06T09:35:57.707Z,53.97
2018-10-06T09:38:26.546Z,53.35
2018-10-06T09:40:55.666Z,53.57
2018-10-06T09:43:24.794Z,54.18
2018-10-06T09:45:53.764Z,54.25
2018-10-06T09:48:22.721Z,54.85
2018-10-06T09:50:51.844Z,54.88
2018-10-06T09:53:20.786Z,53.49
2018-10-06T09:55:49.806Z,53.19
2018-10-06T09:58:18.743Z,53.60
2018-10-06T10:00:53.048Z,53.77
2018-10-06T10:03:26.944Z,53.86
2018-10-06T10:05:56.329Z,53.42
2018-10-06T10:08:25.531Z,53.13
2018-10-06T10:10:54.411Z,52.76
2018-10-06T10:13:24.015Z,52.25
2018-10-06T10:15:52.940Z,52.41
2018-10-06T10:18:22.008Z,51.64
2018-10-06T10:20:50.550Z,51.51
2018-10-06T10:23:19.997Z,51.06
2018-10-06T10:25:48.722Z,50.92
2018-10-06T10:28:17.831Z,51.05
2018-10-06T10:30:46.629Z,51.61
2018-10-06T10:33:15.359Z,51.24
2018-10-06T10:35:44.387Z,51.72
2018-10-06T10:38:13.165Z,51.02
2018-10-06T10:40:42.025Z,51.70
2018-10-06T10:43:10.899Z,51.20
2018-10-06T10:45:40.041Z,51.99
2018-10-06T10:48:09.578Z,52.35
2018-10-06T10:50:40.119Z,52.40
2018-10-06T10:53:09.172Z,52.02
2018-10-06T10:55:38.020Z,52.84
2018-10-06T10:58:06.964Z,53.18
2018-10-06T11:00:36.214Z,52.79
2018-10-06T11:03:05.018Z,53.01
2018-10-06T11:05:33.783Z,53.15
2018-10-06T11:08:02.605Z,53.36
2018-10-06T11:10:31.798Z,52.49
2018-10-06T11:13:01.311Z,52.97
2018-10-06T11:15:30.182Z,52.88
2018-10-06T11:17:59.112Z,52.05
2018-10-06T11:20:28.194Z,52.80
2018-10-06T11:22:57.148Z,52.13
2018-10-06T11:25:26.060Z,52.43
2018-10-06T11:27:54.865Z,51.52
2018-10-06T11:30:24.039Z,51.43
2018-10-06T11:32:53.734Z,51.99
2018-10-06T11:35:22.600Z,51.52
2018-10-06T11:37:51.830Z,52.51
2018-10-06T11:40:20.668Z,51.34
2018-10-06T11:42:50.307Z,52.10
2018-10-06T11:45:19.833Z,51.76
2018-10-06T11:47:48.770Z,50.93
2018-10-06T11:50:18.149Z,51.53
2018-10-06T11:52:47.144Z,50.88
2018-10-06T11:55:15.924Z,50.20
2018-10-06T11:57:45.193Z,50.21
2018-10-06T12:00:14.084Z,50.44
2018-10-06T12:02:43.170Z,50.30
2018-10-06T12:05:12.372Z,50.14
2018-10-06T12:07:41.202Z,49.99
2018-10-06T12:10:10.619Z,49.45
2018-10-06T12:12:39.467Z,49.85
2018-10-06T12:15:08.364Z,49.40
2018-10-06T12:17:37.479Z,49.12
2018-10-06T12:20:06.861Z,49.78
2018-10-06T12:22:36.301Z,49.77
2018-10-06T12:25:05.670Z,50.43
2018-10-06T12:27:34.500Z,50.11
2018-10-06T12:30:03.353Z,50.50
2018-10-06T12:32:32.689Z,50.31
2018-10-06T12:35:01.875Z,50.46
2018-10-06T12:37:31.078Z,49.22
2018-10-06T12:39:59.921Z,49.16
2018-10-06T12:42:28.823Z,49.48
2018-10-06T12:44:57.498Z,49.81
2018-10-06T12:47:27.247Z,48.88
2018-10-06T12:49:56.011Z,50.29
2018-10-06T12:52:24.800Z,50.27
2018-10-06T12:54:53.584Z,50.06
2018-10-06T12:57:22.597Z,50.29
2018-10-06T12:59:51.412Z,49.42
2018-10-06T13:02:20.299Z,48.88
2018-10-06T13:04:49.089Z,48.71
2018-10-06T13:07:18.398Z,48.67
2018-10-06T13:09:47.207Z,48.74
2018-10-06T13:12:16.465Z,49.72
2018-10-06T13:14:45.528Z,49.41
2018-10-06T13:17:14.702Z,48.51
2018-10-06T13:19:44.271Z,49.27
2018-10-06T13:22:13.533Z,47.79
2018-10-06T13:24:42.301Z,47.89
2018-10-06T13:27:11.523Z,47.67
2018-10-06T13:29:40.483Z,47.31
2018-10-06T13:32:09.619Z,46.87
2018-10-06T13:34:38.821Z,46.49
2018-10-06T13:37:08.042Z,46.75
2018-10-06T13:39:36.832Z,47.31
2018-10-06T13:42:06.396Z,47.37
2018-10-06T13:44:35.185Z,48.48
2018-10-06T13:47:04.432Z,46.57
2018-10-06T13:49:33.251Z,47.06
2018-10-06T13:52:02.107Z,47.23
2018-10-06T13:54:31.254Z,48.14
2018-10-06T13:57:00.194Z,47.28
2018-10-06T13:59:29.089Z,46.98
2018-10-06T14:01:58.349Z,47.11
2018-10-06T14:04:27.551Z,46.45
2018-10-06T14:06:56.385Z,46.73
2018-10-06T14:09:25.261Z,46.95
2018-10-06T14:11:54.350Z,46.73
2018-10-06T14:14:23.211Z,46.78
2018-10-06T14:16:52.084Z,47.10
2018-10-06T14:19:20.956Z,46.89
2018-10-06T14:21:49.800Z,47.05
2018-10-06T14:24:18.916Z,47.08
2018-10-06T14:26:47.950Z,46.88
2018-10-06T14:29:18.002Z,47.24
2018-10-06T14:31:47.537Z,47.33
2018-10-06T14:34:16.378Z,47.02
2018-10-06T14:36:45.297Z,47.31
2018-10-06T14:39:14.166Z,47.94
2018-10-06T14:41:43.125Z,47.90
2018-10-06T14:44:12.049Z,47.52
2018-10-06T14:46:40.881Z,48.05
2018-10-06T14:49:10.491Z,48.57
2018-10-06T14:51:40.362Z,49.41
2018-10-06T14:54:09.499Z,48.87
2018-10-06T14:56:38.330Z,49.19
2018-10-06T14:59:07.537Z,50.45
2018-10-06T15:01:36.403Z,50.82
2018-10-06T15:04:05.573Z,51.56
2018-10-06T15:06:34.586Z,52.67
2018-10-06T15:09:04.515Z,52.97
2018-10-06T15:11:34.190Z,53.34
2018-10-06T15:14:02.984Z,52.86
2018-10-06T15:16:32.306Z,53.43
2018-10-06T15:19:01.513Z,53.30
2018-10-06T15:21:30.714Z,54.17
2018-10-06T15:23:59.576Z,54.32
2018-10-06T15:26:29.122Z,54.09
2018-10-06T15:28:59.043Z,54.52
2018-10-06T15:31:28.492Z,55.13
2018-10-06T15:33:57.383Z,55.33
2018-10-06T15:36:26.260Z,55.79
2018-10-06T15:38:55.273Z,57.03
2018-10-06T15:41:24.128Z,56.99
2018-10-06T15:43:52.946Z,57.98
2018-10-06T15:46:21.755Z,57.57
2018-10-06T15:48:50.529Z,58.25
2018-10-06T15:51:19.428Z,58.69
2018-10-06T15:53:48.264Z,58.84
2018-10-06T15:56:17.348Z,58.90
2018-10-06T15:58:46.240Z,58.78
2018-10-06T16:01:15.160Z,59.06
2018-10-06T16:03:43.990Z,59.85
2018-10-06T16:06:13.177Z,59.86
2018-10-06T16:08:42.483Z,60.14
2018-10-06T16:11:11.269Z,60.23
2018-10-06T16:13:40.114Z,59.93
2018-10-06T16:16:08.976Z,60.31
2018-10-06T16:18:37.999Z,60.77
2018-10-06T16:21:07.141Z,60.93
2018-10-06T16:23:36.025Z,61.78
2018-10-06T16:26:04.921Z,61.92
2018-10-06T16:28:33.812Z,62.19
2018-10-06T16:31:02.613Z,61.92
2018-10-06T16:33:31.408Z,62.58
2018-10-06T16:36:00.502Z,62.29
2018-10-06T16:38:29.366Z,62.64
2018-10-06T16:40:58.515Z,62.68
2018-10-06T16:43:27.258Z,62.84
2018-10-06T16:45:56.574Z,62.97
2018-10-06T16:48:26.269Z,63.03
2018-10-06T16:50:55.036Z,63.24
2018-10-06T16:53:25.256Z,63.59
2018-10-06T16:55:54.162Z,63.78
2018-10-06T16:58:23.083Z,63.59
2018-10-06T17:00:52.276Z,63.73
2018-10-06T17:03:21.029Z,64.00
2018-10-06T17:05:50.230Z,64.61
2018-10-06T17:08:18.981Z,65.02
2018-10-06T17:10:47.782Z,64.79
2018-10-06T17:13:16.563Z,65.35
2018-10-06T17:15:45.326Z,65.42
2018-10-06T17:18:14.440Z,65.12
2018-10-06T17:20:43.237Z,65.65
2018-10-06T17:23:12.432Z,65.33
2018-10-06T17:25:42.424Z,65.08
2018-10-06T17:28:11.630Z,65.83
2018-10-06T17:30:40.791Z,65.49
2018-10-06T17:33:11.100Z,65.75
2018-10-06T17:35:40.331Z,65.91
2018-10-06T17:38:09.449Z,66.08
2018-10-06T17:40:38.702Z,65.83
2018-10-06T17:43:08.167Z,66.43
2018-10-06T17:45:37.013Z,65.83
2018-10-06T17:48:05.953Z,65.97
2018-10-06T17:50:34.802Z,65.80
2018-10-06T17:53:03.636Z,66.20
2018-10-06T17:55:32.476Z,65.39
2018-10-06T17:58:01.468Z,65.87
2018-10-06T18:00:30.561Z,64.51
2018-10-06T18:02:59.415Z,64.42
2018-10-06T18:05:28.507Z,64.57
2018-10-06T18:07:57.257Z,64.89
2018-10-06T18:10:26.275Z,64.92
2018-10-06T18:12:55.687Z,64.84
2018-10-06T18:15:24.522Z,64.35
2018-10-06T18:17:53.371Z,64.99
2018-10-06T18:20:22.292Z,64.78
2018-10-06T18:22:51.456Z,64.76
2018-10-06T18:25:21.020Z,64.40
2018-10-06T18:27:50.225Z,64.15
2018-10-06T18:30:19.056Z,64.62
2018-10-06T18:32:47.840Z,63.73
2018-10-06T18:35:18.486Z,64.28
2018-10-06T18:37:47.496Z,64.06
2018-10-06T18:40:17.798Z,64.19
2018-10-06T18:42:48.126Z,63.63
2018-10-06T18:45:17.088Z,63.53
2018-10-06T18:47:46.368Z,63.39
2018-10-06T18:50:15.141Z,63.46
2018-10-06T18:52:44.139Z,64.19
2018-10-06T18:55:13.597Z,64.32
2018-10-06T18:57:42.532Z,63.72
2018-10-06T19:00:14.183Z,64.31
2018-10-06T19:02:43.288Z,64.37
2018-10-06T19:05:12.196Z,64.23
2018-10-06T19:07:41.036Z,63.71
2018-10-06T19:10:10.326Z,64.29
2018-10-06T19:12:39.509Z,64.32
2018-10-06T19:15:08.311Z,63.69
2018-10-06T19:17:37.466Z,64.28
2018-10-06T19:20:06.551Z,64.00
2018-10-06T19:22:35.648Z,63.98
2018-10-06T19:25:04.529Z,64.52
2018-10-06T19:27:33.486Z,64.34
2018-10-06T19:30:02.504Z,64.62
2018-10-06T19:32:31.274Z,64.15
2018-10-06T19:35:00.355Z,64.74
2018-10-06T19:37:29.228Z,64.88
2018-10-06T19:39:58.094Z,64.17
2018-10-06T19:42:26.977Z,64.28
2018-10-06T19:44:56.049Z,64.74
2018-10-06T19:47:25.015Z,64.85
2018-10-06T19:49:54.058Z,64.28
2018-10-06T19:52:23.246Z,65.13
2018-10-06T19:54:52.153Z,65.29
2018-10-06T19:57:21.046Z,64.55
2018-10-06T19:59:49.907Z,65.32
2018-10-06T20:02:19.894Z,64.75
2018-10-06T20:04:53.147Z,64.92
2018-10-06T20:07:22.348Z,64.89
2018-10-06T20:09:51.204Z,65.57
2018-10-06T20:12:20.222Z,65.85
2018-10-06T20:14:50.079Z,65.86
2018-10-06T20:17:19.188Z,65.44
2018-10-06T20:19:48.100Z,66.23
2018-10-06T20:22:16.961Z,66.33
2018-10-06T20:24:46.133Z,66.18
2018-10-06T20:27:14.975Z,66.53
2018-10-06T20:29:43.888Z,66.04
2018-10-06T20:32:12.997Z,66.35
2018-10-06T20:34:41.789Z,66.26
2018-10-06T20:37:10.637Z,66.84
2018-10-06T20:39:39.679Z,66.84
2018-10-06T20:42:10.140Z,66.46
2018-10-06T20:44:41.971Z,66.47
2018-10-06T20:47:12.120Z,66.91
2018-10-06T20:49:41.121Z,67.04
2018-10-06T20:52:10.128Z,66.40
2018-10-06T20:54:39.175Z,66.27
2018-10-06T20:57:08.125Z,66.38
2018-10-06T20:59:36.963Z,66.42
2018-10-06T21:02:06.311Z,67.00
2018-10-06T21:04:35.490Z,66.92
2018-10-06T21:07:04.401Z,66.39
2018-10-06T21:09:33.624Z,66.44
2018-10-06T21:12:02.521Z,67.14
2018-10-06T21:14:31.533Z,66.48
2018-10-06T21:17:00.813Z,66.86
2018-10-06T21:19:29.951Z,67.06
2018-10-06T21:21:58.856Z,66.43
2018-10-06T21:24:28.115Z,66.38
2018-10-06T21:26:57.241Z,66.56
2018-10-06T21:29:26.476Z,67.20
2018-10-06T21:31:56.489Z,67.17
2018-10-06T21:34:25.339Z,67.18
2018-10-06T21:36:55.217Z,66.66
2018-10-06T21:39:24.172Z,66.47
2018-10-06T21:41:53.528Z,67.06
2018-10-06T21:44:23.801Z,67.16
2018-10-06T21:46:59.162Z,66.70
2018-10-06T21:49:29.872Z,66.51
2018-10-06T21:52:00.401Z,66.58
2018-10-06T21:54:31.335Z,66.43
2018-10-06T21:57:01.995Z,66.44
2018-10-06T21:59:31.338Z,66.37
2018-10-06T22:02:00.365Z,66.92
2018-10-06T22:04:29.377Z,66.35
2018-10-06T22:06:58.367Z,66.71
2018-10-06T22:09:27.693Z,66.92
2018-10-06T22:11:56.625Z,66.61
2018-10-06T22:14:25.845Z,66.48
2018-10-06T22:16:54.913Z,66.30
2018-10-06T22:19:23.893Z,66.01
2018-10-06T22:21:53.705Z,65.91
2018-10-06T22:24:22.889Z,66.26
2018-10-06T22:26:51.880Z,66.12
2018-10-06T22:29:22.174Z,65.88
2018-10-06T22:31:52.220Z,66.59
2018-10-06T22:34:22.797Z,66.62
2018-10-06T22:36:51.753Z,66.34
2018-10-06T22:39:20.680Z,66.63
2018-10-06T22:41:49.777Z,66.02
2018-10-06T22:44:19.680Z,66.26
2018-10-06T22:46:49.565Z,66.65
2018-10-06T22:49:18.630Z,66.60
2018-10-06T22:51:48.003Z,66.60
2018-10-06T22:54:17.756Z,66.47
2018-10-06T22:56:46.605Z,66.82
2018-10-06T22:59:15.459Z,66.85
2018-10-06T23:01:44.278Z,66.45
2018-10-06T23:04:13.441Z,66.53
2018-10-06T23:06:42.947Z,66.85
2018-10-06T23:09:12.677Z,67.19
2018-10-06T23:11:41.801Z,66.67
2018-10-06T23:14:11.272Z,66.82
2018-10-06T23:16:40.814Z,66.76
2018-10-06T23:19:10.104Z,67.50
2018-10-06T23:21:39.688Z,67.62
2018-10-06T23:24:08.438Z,67.08
2018-10-06T23:26:37.610Z,67.30
2018-10-06T23:29:06.393Z,67.85
2018-10-06T23:31:35.487Z,67.44
2018-10-06T23:34:04.790Z,68.03
2018-10-06T23:36:34.594Z,68.21
2018-10-06T23:39:05.179Z,67.63
2018-10-06T23:41:35.555Z,68.20
2018-10-06T23:44:05.528Z,68.17
2018-10-06T23:46:35.691Z,68.73
2018-10-06T23:49:06.222Z,68.68
2018-10-06T23:51:34.964Z,68.33
2018-10-06T23:54:04.090Z,68.65
2018-10-06T23:56:34.415Z,68.31
2018-10-06T23:59:04.050Z,68.89
